createdAt,value
2022-08-22T00:02:14.009Z,99546.94
2022-08-22T00:02:47.572Z,99469.95
2022-08-22T00:02:57.556Z,99507.34
2022-08-22T00:03:11.649Z,99508.17
2022-08-22T00:05:05.536Z,99552.30
2022-08-22T00:07:46.741Z,99555.44
2022-08-22T00:10:25.519Z,99551.47
2022-08-22T00:13:00.766Z,99561.23
2022-08-22T00:15:43.668Z,99558.63
2022-08-22T00:18:20.895Z,99559.52
2022-08-22T00:21:17.325Z,99556.00
2022-08-22T00:23:58.178Z,99551.12
2022-08-22T00:26:45.678Z,99556.46
2022-08-22T00:29:20.970Z,99561.38
2022-08-22T00:32:10.300Z,99561.85
2022-08-22T00:35:01.264Z,99565.41
2022-08-22T00:37:45.259Z,99568.55
2022-08-22T00:40:32.543Z,99563.23
2022-08-22T00:43:22.444Z,99570.33
2022-08-22T00:46:16.013Z,99565.48
2022-08-22T00:49:12.245Z,99565.06
2022-08-22T00:51:56.033Z,99567.25
2022-08-22T00:54:36.671Z,99567.70
2022-08-22T00:57:14.653Z,99569.47
2022-08-22T01:00:18.356Z,99577.04
2022-08-22T01:03:07.696Z,99574.80
2022-08-22T01:06:05.095Z,99577.48
2022-08-22T01:09:01.646Z,99581.48
2022-08-22T01:11:44.132Z,99573.95
2022-08-22T01:14:40.593Z,99575.75
2022-08-22T01:17:25.133Z,99586.40
2022-08-22T01:20:22.651Z,99588.20
2022-08-22T01:23:09.861Z,99586.88
2022-08-22T01:25:50.941Z,99592.22
2022-08-22T01:28:28.802Z,99595.77
2022-08-22T01:31:18.847Z,99597.97
2022-08-22T01:34:12.771Z,99599.34
2022-08-22T01:36:49.438Z,99607.33
2022-08-22T01:39:27.759Z,99611.75
2022-08-22T01:42:17.734Z,99619.73
2022-08-22T01:45:26.279Z,99618.41
2022-08-22T01:48:13.104Z,99622.41
2022-08-22T01:50:50.856Z,99619.33
2022-08-22T01:53:32.097Z,99622.45
2022-08-22T01:56:24.048Z,99619.33
2022-08-22T01:59:11.122Z,99610.90
2022-08-22T02:02:16.998Z,99622.45
2022-08-22T02:04:58.292Z,99610.44
2022-08-22T02:07:32.919Z,99609.11
2022-08-22T02:10:23.136Z,99618.42
2022-08-22T02:13:23.353Z,99613.97
2022-08-22T02:16:13.356Z,99615.30
2022-08-22T02:19:08.305Z,99617.08
2022-08-22T02:21:56.513Z,99613.09
2022-08-22T02:24:47.923Z,99610.88
2022-08-22T02:27:22.874Z,99616.64
2022-08-22T02:30:00.366Z,99613.08
2022-08-22T02:32:35.539Z,99613.06
2022-08-22T02:35:13.011Z,99611.31
2022-08-22T02:38:07.462Z,99610.86
2022-08-22T02:40:42.978Z,99609.52
2022-08-22T02:43:29.718Z,99609.97
2022-08-22T02:46:21.158Z,99602.86
2022-08-22T02:48:56.001Z,99612.61
2022-08-22T02:51:55.277Z,99614.81
2022-08-22T02:54:33.182Z,99618.78
2022-08-22T02:57:17.312Z,99620.56
2022-08-22T03:00:30.737Z,99617.90
2022-08-22T03:02:46.557Z,99617.02
2022-08-22T03:05:30.790Z,99613.91
2022-08-22T03:08:30.813Z,99618.80
2022-08-22T03:11:09.228Z,99616.56
2022-08-22T03:14:14.363Z,99610.82
2022-08-22T03:16:52.864Z,99618.33
2022-08-22T03:19:36.962Z,99611.69
2022-08-22T03:22:14.439Z,99616.11
2022-08-22T03:25:07.679Z,99617.44
2022-08-22T03:27:54.826Z,99624.95
2022-08-22T03:30:44.702Z,99624.08
2022-08-22T03:33:19.711Z,99628.93
2022-08-22T03:36:09.739Z,99625.40
2022-08-22T03:39:09.753Z,99627.59
2022-08-22T03:41:53.302Z,99639.11
2022-08-22T03:44:44.977Z,99640.02
2022-08-22T03:47:34.662Z,99635.13
2022-08-22T03:50:27.516Z,99633.81
2022-08-22T03:53:18.449Z,99636.95
2022-08-22T03:55:47.881Z,99638.74
2022-08-22T03:58:43.087Z,99644.03
2022-08-22T04:01:37.684Z,99640.05
2022-08-22T04:04:32.104Z,99625.89
2022-08-22T04:07:09.360Z,99631.22
2022-08-22T04:10:04.957Z,99631.68
2022-08-22T04:13:11.484Z,99633.02
2022-08-22T04:15:52.880Z,99627.25
2022-08-22T04:18:51.962Z,99632.12
2022-08-22T04:21:43.797Z,99633.47
2022-08-22T04:24:38.177Z,99625.51
2022-08-22T04:27:37.707Z,99630.83
2022-08-22T04:30:18.799Z,99632.59
2022-08-22T04:33:18.104Z,99637.49
2022-08-22T04:35:58.789Z,99642.39
2022-08-22T04:38:43.112Z,99633.08
2022-08-22T04:41:24.929Z,99631.72
2022-08-22T04:44:00.194Z,99623.73
2022-08-22T04:46:45.006Z,99622.84
2022-08-22T04:49:22.517Z,99617.91
2022-08-22T04:52:00.383Z,99619.68
2022-08-22T04:55:05.900Z,99621.88
2022-08-22T04:58:06.693Z,99627.17
2022-08-22T05:00:51.344Z,99626.73
2022-08-22T05:03:23.269Z,99631.17
2022-08-22T05:05:56.509Z,99617.84
2022-08-22T05:08:31.258Z,99616.91
2022-08-22T05:11:04.051Z,99623.12
2022-08-22T05:13:51.114Z,99628.41
2022-08-22T05:16:26.721Z,99631.05
2022-08-22T05:19:04.096Z,99631.49
2022-08-22T05:21:38.747Z,99633.69
2022-08-22T05:24:13.244Z,99635.02
2022-08-22T05:26:48.040Z,99635.91
2022-08-22T05:29:21.863Z,99638.55
2022-08-22T05:32:02.968Z,99630.96
2022-08-22T05:34:40.313Z,99638.48
2022-08-22T05:37:15.782Z,99638.02
2022-08-22T05:39:50.168Z,99625.08
2022-08-22T05:42:27.809Z,99626.39
2022-08-22T05:45:01.915Z,99625.91
2022-08-22T05:47:39.972Z,99625.47
2022-08-22T05:50:26.831Z,99631.66
2022-08-22T05:53:10.831Z,99620.52
2022-08-22T05:55:57.064Z,99620.95
2022-08-22T05:58:35.120Z,99622.23
2022-08-22T06:01:22.283Z,99620.41
2022-08-22T06:04:09.665Z,99628.77
2022-08-22T06:07:09.123Z,99630.94
2022-08-22T06:09:51.428Z,99618.82
2022-08-22T06:12:32.189Z,99613.86
2022-08-22T06:15:20.928Z,99620.44
2022-08-22T06:17:55.117Z,99612.78
2022-08-22T06:20:45.463Z,99626.87
2022-08-22T06:23:25.337Z,99623.22
2022-08-22T06:26:00.029Z,99634.23
2022-08-22T06:28:35.053Z,99637.28
2022-08-22T06:31:07.927Z,99628.34
2022-08-22T06:33:42.376Z,99634.50
2022-08-22T06:36:32.012Z,99639.33
2022-08-22T06:39:12.932Z,99629.48
2022-08-22T06:41:51.268Z,99643.23
2022-08-22T06:44:32.360Z,99637.41
2022-08-22T06:47:07.554Z,99626.67
2022-08-22T06:49:40.345Z,99631.49
2022-08-22T06:52:20.410Z,99634.09
2022-08-22T06:54:55.301Z,99628.66
2022-08-22T06:57:46.692Z,99625.91
2022-08-22T07:00:21.359Z,99628.49
2022-08-22T07:03:01.533Z,99615.48
2022-08-22T07:05:39.069Z,99626.95
2022-08-22T07:08:20.344Z,99619.20
2022-08-22T07:11:12.777Z,99620.02
2022-08-22T07:13:53.608Z,99626.56
2022-08-22T07:16:48.763Z,99629.51
2022-08-22T07:19:26.259Z,99621.73
2022-08-22T07:21:58.805Z,99624.75
2022-08-22T07:24:32.793Z,99631.31
2022-08-22T07:27:23.341Z,99622.68
2022-08-22T07:30:12.893Z,99625.25
2022-08-22T07:33:26.831Z,99622.41
2022-08-22T07:35:39.305Z,99626.31
2022-08-22T07:38:32.178Z,99616.77
2022-08-22T07:41:13.153Z,99613.94
2022-08-22T07:43:57.783Z,99594.63
2022-08-22T07:46:37.639Z,99605.19
2022-08-22T07:49:22.599Z,99601.02
2022-08-22T07:51:57.882Z,99597.24
2022-08-22T07:54:33.020Z,99593.89
2022-08-22T07:57:10.871Z,99594.17
2022-08-22T07:59:45.726Z,99597.95
2022-08-22T08:02:18.687Z,99608.08
2022-08-22T08:04:51.926Z,99593.19
2022-08-22T08:07:27.081Z,99601.97
2022-08-22T08:10:02.621Z,99601.35
2022-08-22T08:12:37.373Z,99612.45
2022-08-22T08:15:12.290Z,99608.86
2022-08-22T08:17:44.279Z,99603.02
2022-08-22T08:20:17.812Z,99607.27
2022-08-22T08:22:49.559Z,99614.19
2022-08-22T08:25:24.163Z,99605.11
2022-08-22T08:28:14.189Z,99614.44
2022-08-22T08:30:48.739Z,99618.34
2022-08-22T08:33:24.866Z,99615.44
2022-08-22T08:36:05.733Z,99618.72
2022-08-22T08:38:40.869Z,99621.13
2022-08-22T08:41:38.477Z,99632.94
2022-08-22T08:44:36.020Z,99621.95
2022-08-22T08:47:22.939Z,99647.18
2022-08-22T08:50:26.638Z,99633.93
2022-08-22T08:53:23.990Z,99630.08
2022-08-22T08:56:04.718Z,99618.68
2022-08-22T08:58:39.742Z,99627.30
2022-08-22T09:01:38.754Z,99629.30
2022-08-22T09:04:47.038Z,99637.70
2022-08-22T09:07:54.287Z,99636.70
2022-08-22T09:10:45.688Z,99626.28
2022-08-22T09:13:24.257Z,99630.58
2022-08-22T09:16:05.240Z,99628.23
2022-08-22T09:18:45.040Z,99629.57
2022-08-22T09:21:36.867Z,99621.50
2022-08-22T09:24:37.858Z,99626.41
2022-08-22T09:27:26.451Z,99626.84
2022-08-22T09:30:08.892Z,99629.00
2022-08-22T09:33:03.415Z,99626.22
2022-08-22T09:35:58.047Z,99627.08
2022-08-22T09:38:40.448Z,99629.59
2022-08-22T09:41:36.743Z,99635.36
2022-08-22T09:44:12.039Z,99642.41
2022-08-22T09:46:53.362Z,99614.89
2022-08-22T09:49:32.879Z,99628.16
2022-08-22T09:52:14.361Z,99628.36
2022-08-22T09:54:47.670Z,99627.70
2022-08-22T09:57:39.809Z,99631.50
2022-08-22T10:00:25.911Z,99631.31
2022-08-22T10:03:03.770Z,99628.95
2022-08-22T10:05:48.197Z,99628.90
2022-08-22T10:08:48.758Z,99622.06
2022-08-22T10:11:28.986Z,99634.80
2022-08-22T10:14:22.317Z,99628.78
2022-08-22T10:17:16.023Z,99631.27
2022-08-22T10:19:52.688Z,99637.36
2022-08-22T10:22:44.769Z,99629.62
2022-08-22T10:25:35.209Z,99635.37
2022-08-22T10:28:22.106Z,99634.37
2022-08-22T10:31:01.568Z,99640.61
2022-08-22T10:33:39.777Z,99636.94
2022-08-22T10:36:23.775Z,99639.62
2022-08-22T10:38:59.252Z,99639.62
2022-08-22T10:41:45.414Z,99650.30
2022-08-22T10:44:23.045Z,99634.14
2022-08-22T10:47:04.109Z,99640.06
2022-08-22T10:49:51.124Z,99642.27
2022-08-22T10:52:28.933Z,99634.98
2022-08-22T10:55:05.681Z,99637.16
2022-08-22T10:58:07.046Z,99634.77
2022-08-22T11:00:59.672Z,99641.74
2022-08-22T11:03:40.713Z,99632.09
2022-08-22T11:06:19.067Z,99652.56
2022-08-22T11:08:54.381Z,99637.55
2022-08-22T11:11:38.682Z,99642.77
2022-08-22T11:14:42.415Z,99635.00
2022-08-22T11:17:28.250Z,99633.06
2022-08-22T11:20:05.950Z,99640.98
2022-08-22T11:22:48.844Z,99636.77
2022-08-22T11:25:35.951Z,99636.16
2022-08-22T11:28:02.977Z,99621.21
2022-08-22T11:30:48.348Z,99624.58
2022-08-22T11:33:47.438Z,99630.19
2022-08-22T11:36:17.466Z,99625.43
2022-08-22T11:39:18.652Z,99618.52
2022-08-22T11:42:02.236Z,99623.34
2022-08-22T11:44:50.183Z,99617.29
2022-08-22T11:47:12.961Z,99618.04
2022-08-22T11:50:13.419Z,99611.72
2022-08-22T11:52:51.942Z,99621.48
2022-08-22T11:55:42.507Z,99620.86
2022-08-22T11:58:28.686Z,99622.09
2022-08-22T12:01:03.145Z,99626.47
2022-08-22T12:03:51.059Z,99613.81
2022-08-22T12:06:51.690Z,99628.63
2022-08-22T12:09:35.986Z,99618.22
2022-08-22T12:12:17.087Z,99616.39
2022-08-22T12:14:54.691Z,99618.16
2022-08-22T12:17:55.064Z,99612.64
2022-08-22T12:20:45.435Z,99613.50
2022-08-22T12:23:49.510Z,99616.98
2022-08-22T12:26:25.282Z,99614.16
2022-08-22T12:29:17.096Z,99618.95
2022-08-22T12:32:27.505Z,99621.05
2022-08-22T12:35:14.659Z,99623.62
2022-08-22T12:37:52.823Z,99624.43
2022-08-22T12:40:38.295Z,99627.01
2022-08-22T12:43:23.225Z,99627.78
2022-08-22T12:46:30.690Z,99628.59
2022-08-22T12:49:22.093Z,99624.41
2022-08-22T12:52:09.221Z,99628.82
2022-08-22T12:54:51.177Z,99633.67
2022-08-22T12:57:44.570Z,99636.31
2022-08-22T13:00:31.715Z,99629.50
2022-08-22T13:03:17.983Z,99635.77
2022-08-22T13:05:57.128Z,99644.67
2022-08-22T13:08:26.552Z,99631.11
2022-08-22T13:11:01.633Z,99630.59
2022-08-22T13:13:39.874Z,99637.22
2022-08-22T13:16:15.767Z,99626.35
2022-08-22T13:18:56.731Z,99621.40
2022-08-22T13:21:34.943Z,99624.58
2022-08-22T13:24:22.862Z,99607.89
2022-08-22T13:26:56.952Z,99628.16
2022-08-22T13:29:43.483Z,99622.30
2022-08-22T13:32:21.396Z,99624.48
2022-08-22T13:34:56.865Z,99614.09
2022-08-22T13:37:34.706Z,99615.77
2022-08-22T13:40:10.126Z,99620.24
2022-08-22T13:42:49.883Z,99640.92
2022-08-22T13:45:27.760Z,99634.55
2022-08-22T13:48:03.974Z,99639.02
2022-08-22T13:50:53.054Z,99629.95
2022-08-22T13:53:16.183Z,99636.64
2022-08-22T13:55:54.980Z,99623.62
2022-08-22T13:58:37.533Z,99629.89
2022-08-22T14:01:31.425Z,99632.52
2022-08-22T14:04:34.744Z,99625.31
2022-08-22T14:07:06.503Z,99633.42
2022-08-22T14:09:56.802Z,99629.38
2022-08-22T14:12:50.135Z,99627.05
2022-08-22T14:15:13.128Z,99629.76
2022-08-22T14:17:48.347Z,99632.08
2022-08-22T14:20:32.622Z,99625.77
2022-08-22T14:23:17.577Z,99627.19
2022-08-22T14:25:49.576Z,99634.42
2022-08-22T14:28:29.847Z,99625.90
2022-08-22T14:31:13.547Z,99624.16
2022-08-22T14:33:51.346Z,99624.71
2022-08-22T14:36:25.570Z,99617.61
2022-08-22T14:39:01.314Z,99623.08
2022-08-22T14:41:52.817Z,99630.38
2022-08-22T14:44:33.835Z,99626.80
2022-08-22T14:47:30.342Z,99622.08
2022-08-22T14:49:52.971Z,99625.32
2022-08-22T14:52:36.789Z,99629.88
2022-08-22T14:55:12.054Z,99618.34
2022-08-22T14:57:51.592Z,99633.38
2022-08-22T15:00:29.880Z,99624.05
2022-08-22T15:03:10.702Z,99626.38
2022-08-22T15:05:45.612Z,99625.02
2022-08-22T15:08:48.490Z,99631.29
2022-08-22T15:11:25.213Z,99628.95
2022-08-22T15:14:12.706Z,99627.30
2022-08-22T15:16:53.387Z,99628.91
2022-08-22T15:19:41.259Z,99631.91
2022-08-22T15:22:25.716Z,99630.42
2022-08-22T15:25:18.231Z,99636.63
2022-08-22T15:27:59.670Z,99634.23
2022-08-22T15:30:44.267Z,99627.30
2022-08-22T15:33:19.854Z,99635.75
2022-08-22T15:35:52.925Z,99634.70
2022-08-22T15:38:36.427Z,99640.38
2022-08-22T15:41:36.575Z,99632.55
2022-08-22T15:44:32.492Z,99633.17
2022-08-22T15:47:11.840Z,99636.63
2022-08-22T15:49:52.995Z,99639.19
2022-08-22T15:52:28.666Z,99633.23
2022-08-22T15:55:19.156Z,99646.53
2022-08-22T15:58:02.117Z,99642.77
2022-08-22T16:00:36.625Z,99642.61
2022-08-22T16:03:29.993Z,99642.44
2022-08-22T16:06:07.396Z,99648.56
2022-08-22T16:08:50.212Z,99661.41
2022-08-22T16:11:33.068Z,99659.06
2022-08-22T16:14:21.246Z,99668.73
2022-08-22T16:17:09.533Z,99665.42
2022-08-22T16:19:42.075Z,99669.76
2022-08-22T16:22:14.380Z,99663.38
2022-08-22T16:24:55.516Z,99671.21
2022-08-22T16:27:28.131Z,99673.66
2022-08-22T16:30:08.877Z,99676.12
2022-08-22T16:32:40.701Z,99680.34
2022-08-22T16:35:12.597Z,99679.18
2022-08-22T16:37:47.973Z,99679.36
2022-08-22T16:40:24.695Z,99681.36
2022-08-22T16:43:17.591Z,99685.58
2022-08-22T16:45:49.351Z,99690.22
2022-08-22T16:48:37.693Z,99696.72
2022-08-22T16:51:18.951Z,99699.08
2022-08-22T16:54:06.465Z,99697.47
2022-08-22T16:57:01.200Z,99700.80
2022-08-22T16:59:38.786Z,99704.65
2022-08-22T17:02:29.151Z,99702.61
2022-08-22T17:05:07.042Z,99709.96
2022-08-22T17:07:59.044Z,99713.80
2022-08-22T17:10:39.658Z,99718.53
2022-08-22T17:13:15.121Z,99721.78
2022-08-22T17:16:05.971Z,99719.75
2022-08-22T17:18:44.129Z,99715.55
2022-08-22T17:21:28.652Z,99720.24
2022-08-22T17:24:31.544Z,99717.34
2022-08-22T17:26:55.127Z,99725.64
2022-08-22T17:29:39.361Z,99723.20
2022-08-22T17:32:17.214Z,99722.03
2022-08-22T17:34:52.148Z,99721.80
2022-08-22T17:37:42.016Z,99722.84
2022-08-22T17:40:23.356Z,99717.64
2022-08-22T17:43:16.745Z,99720.92
2022-08-22T17:46:13.383Z,99721.11
2022-08-22T17:48:49.076Z,99722.61
2022-08-22T17:51:33.098Z,99723.20
2022-08-22T17:54:29.674Z,99719.73
2022-08-22T17:57:08.001Z,99732.36
2022-08-22T17:59:55.261Z,99736.97
2022-08-22T18:02:46.381Z,99731.25
2022-08-22T18:05:21.235Z,99732.70
2022-08-22T18:08:37.524Z,99732.41
2022-08-22T18:10:58.014Z,99733.86
2022-08-22T18:13:41.730Z,99738.42
2022-08-22T18:16:33.078Z,99741.19
2022-08-22T18:19:20.030Z,99739.52
2022-08-22T18:22:02.626Z,99732.48
2022-08-22T18:25:02.411Z,99733.03
2022-08-22T18:27:53.434Z,99730.42
2022-08-22T18:30:36.803Z,99738.55
2022-08-22T18:33:32.797Z,99739.09
2022-08-22T18:36:15.828Z,99736.94
2022-08-22T18:39:04.412Z,99737.41
2022-08-22T18:41:39.586Z,99742.84
2022-08-22T18:44:12.874Z,99744.64
2022-08-22T18:46:47.319Z,99751.82
2022-08-22T18:49:26.706Z,99754.55
2022-08-22T18:52:14.001Z,99757.27
2022-08-22T18:54:55.227Z,99759.55
2022-08-22T18:57:46.704Z,99763.65
2022-08-22T19:00:21.777Z,99762.86
2022-08-22T19:03:06.503Z,99764.77
2022-08-22T19:05:55.275Z,99768.38
2022-08-22T19:08:54.074Z,99764.43
2022-08-22T19:11:35.137Z,99768.00
2022-08-22T19:14:16.270Z,99765.79
2022-08-22T19:17:03.387Z,99770.21
2022-08-22T19:19:59.719Z,99777.33
2022-08-22T19:22:35.390Z,99777.73
2022-08-22T19:25:27.289Z,99779.00
2022-08-22T19:28:11.547Z,99777.63
2022-08-22T19:30:49.236Z,99785.16
2022-08-22T19:33:41.938Z,99785.95
2022-08-22T19:36:16.228Z,99776.95
2022-08-22T19:38:57.626Z,99787.16
2022-08-22T19:41:57.480Z,99789.32
2022-08-22T19:44:38.653Z,99782.59
2022-08-22T19:47:24.275Z,99788.79
2022-08-22T19:50:07.551Z,99791.44
2022-08-22T19:53:08.738Z,99794.05
2022-08-22T19:55:45.169Z,99797.16
2022-08-22T19:58:33.184Z,99798.47
2022-08-22T20:01:11.314Z,99804.70
2022-08-22T20:03:58.158Z,99808.22
2022-08-22T20:06:44.612Z,99807.79
2022-08-22T20:09:39.040Z,99808.66
2022-08-22T20:12:25.649Z,99810.49
2022-08-22T20:14:57.521Z,99808.25
2022-08-22T20:17:41.510Z,99809.17
2022-08-22T20:20:30.501Z,99809.17
2022-08-22T20:22:59.458Z,99810.09
2022-08-22T20:25:48.007Z,99817.73
2022-08-22T20:28:47.187Z,99813.79
2022-08-22T20:31:28.799Z,99820.08
2022-08-22T20:34:03.451Z,99824.61
2022-08-22T20:36:35.321Z,99820.66
2022-08-22T20:39:11.841Z,99830.98
2022-08-22T20:41:46.645Z,99836.86
2022-08-22T20:44:24.611Z,99832.91
2022-08-22T20:47:19.402Z,99840.51
2022-08-22T20:50:02.957Z,99833.41
2022-08-22T20:52:37.760Z,99838.31
2022-08-22T20:55:31.650Z,99835.67
2022-08-22T20:58:07.838Z,99837.50
2022-08-22T21:00:48.497Z,99835.75
2022-08-22T21:03:43.140Z,99837.55
2022-08-22T21:06:17.266Z,99838.48
2022-08-22T21:08:51.281Z,99840.78
2022-08-22T21:11:42.024Z,99841.73
2022-08-22T21:14:25.208Z,99844.92
2022-08-22T21:16:57.317Z,99844.51
2022-08-22T21:19:30.483Z,99848.57
2022-08-22T21:22:16.564Z,99846.84
2022-08-22T21:24:48.533Z,99858.91
2022-08-22T21:27:24.463Z,99854.03
2022-08-22T21:29:56.250Z,99861.67
2022-08-22T21:32:42.865Z,99865.72
2022-08-22T21:35:31.635Z,99860.42
2022-08-22T21:38:03.815Z,99867.62
2022-08-22T21:40:38.220Z,99866.34
2022-08-22T21:43:15.362Z,99865.89
2022-08-22T21:45:47.373Z,99868.17
2022-08-22T21:48:40.655Z,99869.09
2022-08-22T21:51:33.804Z,99871.82
2022-08-22T21:54:29.369Z,99870.53
2022-08-22T21:57:04.813Z,99874.59
2022-08-22T21:59:50.981Z,99874.67
2022-08-22T22:02:37.451Z,99873.38
2022-08-22T22:05:17.930Z,99871.17
2022-08-22T22:07:49.839Z,99876.12
2022-08-22T22:10:23.320Z,99875.70
2022-08-22T22:12:58.875Z,99877.06
2022-08-22T22:15:32.961Z,99879.34
2022-08-22T22:18:06.408Z,99878.45
2022-08-22T22:20:38.747Z,99879.77
2022-08-22T22:23:11.623Z,99881.57
2022-08-22T22:25:43.875Z,99888.72
2022-08-22T22:28:25.207Z,99886.94
2022-08-22T22:30:57.043Z,99883.41
2022-08-22T22:33:31.665Z,99882.55
2022-08-22T22:36:13.198Z,99883.44
2022-08-22T22:38:45.193Z,99886.58
2022-08-22T22:41:17.031Z,99882.14
2022-08-22T22:43:49.213Z,99884.40
2022-08-22T22:46:21.582Z,99889.30
2022-08-22T22:48:54.003Z,99887.52
2022-08-22T22:51:26.310Z,99888.45
2022-08-22T22:53:58.631Z,99895.13
2022-08-22T22:56:30.743Z,99894.27
2022-08-22T22:59:12.641Z,99897.36
2022-08-22T23:01:37.992Z,99895.16
2022-08-22T23:04:09.786Z,99897.38
2022-08-22T23:06:41.649Z,99900.97
2022-08-22T23:09:13.713Z,99893.85
2022-08-22T23:11:46.006Z,99901.86
2022-08-22T23:14:18.465Z,99905.87
2022-08-22T23:16:50.471Z,99904.97
2022-08-22T23:19:22.258Z,99898.76
2022-08-22T23:21:59.090Z,99908.97
2022-08-22T23:24:32.752Z,99904.52
2022-08-22T23:27:06.232Z,99908.55
2022-08-22T23:29:41.093Z,99907.65
2022-08-22T23:32:13.515Z,99913.89
2022-08-22T23:34:48.774Z,99920.56
2022-08-22T23:37:21.878Z,99917.45
2022-08-22T23:39:53.617Z,99923.66
2022-08-22T23:42:25.305Z,99919.23
2022-08-22T23:44:57.072Z,99923.69
2022-08-22T23:47:28.860Z,99927.69
2022-08-22T23:50:05.968Z,99929.02
2022-08-22T23:52:34.220Z,99933.89
2022-08-22T23:55:06.250Z,99933.44
2022-08-22T23:57:37.833Z,99935.22
